West Stockholm, New York
Current Conditions -  °F | °C
As of 1:53 AM on Friday 19 Dec 2014 (Local Time) from KMSS Reporting Station
Overcast Overcast  
Wind Chill: 14°   Ceiling: 1500
Heat Index: 25°   Visibility: 10mi
Dew Point: 19°   Wind: 12mph
Humidity: 78%   Direction: 290°WNW
Pressure: 30.02"   Gusts: NA
Location:  44.71°N, 74.9°W
Report Text: KMSS 190653Z AUTO 29010KT 10SM OVC015 M04/M07 A3002 RMK AO2 SLP170 T10391072
Loading
Personal Weather Stations






























Interactive Weather Map New forecast layout! Learn more

10-Day Weather Forecast

Advertisements
Track Severe Weather on mobile